GMADLPMA

Guest
Details From GMAD - Agadir AL MASSIRA
To LPMA - Madeira
Flight Number -
Tags generated
Created
Modified
Stats Distance 454 nm / 842 km
Max Altitude 34,000 ft / 10,363 m
Waypoints 10
Social Downloads 1
Likes 0
Share VATSIM

Download

Looking for another format? Having issues loading an existing format? Contact us
Advertisement - Login to hide

Notes

Basic altitude profile: - Ascent Rate: 2500ft/min - Ascent Speed: 250kts - Cruise Altitude: 310ft - Cruise Speed: 420kts - Descent Rate: 1800ft/min - Descent Speed: 250kts Options: - Use NATs: yes - Use PACOTS: yes - Use low airways: yes - Use high airways: yes

Route

GMAD ADM UG664 SONSO TERTO VASTO SAMAR 3100N01500W KONBA BIMBO LPMA

ID Type Via Altitude Latitude Longitude Leg Dist Tot Dist Heading (true) Name
O GMAD APT - 0 ft / 0 m 30.32262˚ -9.41153˚ - 0 nm - Agadir AL MASSIRA
ADM VOR - 500 ft / 152 m 30.32194˚ -9.38333˚ 1 nm 1 nm 92° / 92° AGADIR VOR-DME
SONSO FIX UG664 (AWY-HI) 34,000 ft / 10,363 m 30.01222˚ -12.10194˚ 142 nm 143 nm 263° / 262° -
TERTO FIX - 34,000 ft / 10,363 m 30.10417˚ -12.71722˚ 32 nm 176 nm 280° / 280° -
VASTO FIX - 34,000 ft / 10,363 m 30.50944˚ -13.57278˚ 50 nm 226 nm 299° / 299° -
SAMAR FIX - 34,000 ft / 10,363 m 30.89972˚ -14.41556˚ 49 nm 276 nm 299° / 298° -
3100N01500W LATLON - 30,500 ft / 9,296 m 31.00000˚ -15.00000˚ 30 nm 307 nm 281° / 281° -
KONBA FIX - 26,400 ft / 8,047 m 31.30083˚ -15.30167˚ 23 nm 330 nm 319° / 319° -
BIMBO FIX - 18,300 ft / 5,578 m 31.42145˚ -16.03287˚ 38 nm 369 nm 281° / 281° -
O LPMA APT - 0 ft / 0 m 32.69770˚ -16.77445˚ 85 nm 454 nm 334° / 334° Madeira

Altitude Profile

Advertisement - Login to hide

Weather


0- 5 10 15 20 25 30 35+ Temperature / ° C

Clouds and Precipitation
Forecast for 2017-12-17 12:00 UTC. Updated 44 minutes ago

Ground ~20,000 ft ~40,000 ft Winds

GMAD

Details ICAO GMAD
Name Agadir AL MASSIRA
Region Morocco
Timezone Africa/Casablanca (UTC+0.0)
Stats Elevation 250 ft / 76 m (AMSL)
Location 30.322623° -9.411528°
Runways 1
Magnetic Variation 2.481° W

METAR

GMAD 171200Z VRB03KT 9999 SCT016 SCT200 19/13 Q1018 NOSIG

Decode

TAF

TAF GMAD 171100Z 1712/1818 28008KT 8000 SCT016= TAF LFBI 171100Z 1712/1812 34008KT 9999 BKN012 TEMPO 1712/1724 24005KT OVC005 TEMPO 1800/1809 2500 -DZRA OVC003 BECMG 1809/1811 BKN015

Decode

Departure Runways

ID Width Length Bearing (true) Bearing (mag) Surface Threshold Offset Overrun Length
10 148 ft / 45 m 10,509 ft / 3,203 m 91.58° 94.06° Asphalt 0 ft / 0 m 0 ft / 0 m
28 148 ft / 45 m 10,509 ft / 3,203 m 271.60° 274.08° Asphalt 0 ft / 0 m 0 ft / 0 m

LPMA

Details ICAO LPMA (FNC)
Name Madeira
Region Portugal
Timezone Atlantic/Madeira (UTC+0.0)
Stats Elevation 192 ft / 59 m (AMSL)
Location 32.697704° -16.774449°
Runways 1
Magnetic Variation 4.981° W

METAR

LPMA 171200Z 01012G22KT 340V040 9999 SCT015 BKN030 18/12 Q1028

Decode

TAF

TAF LPMA 171100Z 1712/1812 02015KT 9999 SCT015 SCT030 TEMPO 1712/1812 BKN015 PROB40 TEMPO 1712/1724 02018G30KT

Decode

Destination Runways

ID Width Length Bearing (true) Bearing (mag) Surface Threshold Offset Overrun Length
05 141 ft / 43 m 8,683 ft / 2,647 m 42.98° 47.96° Asphalt 472 ft / 144 m 0 ft / 0 m
23 141 ft / 43 m 8,683 ft / 2,647 m 222.99° 227.97° Asphalt 466 ft / 142 m 0 ft / 0 m

Popular Alternatives